sensor_id;sensor_type;location;lat;lon;timestamp;P1;durP1;ratioP1;P2;durP2;ratioP2
8584;SDS011;7180;52.742;11.420;2024-01-15T00:01:11;13.80;;;12.50;;
8584;SDS011;7180;52.742;11.420;2024-01-15T00:03:36;13.90;;;12.60;;
8584;SDS011;7180;52.742;11.420;2024-01-15T00:06:01;14.87;;;13.27;;
8584;SDS011;7180;52.742;11.420;2024-01-15T00:08:27;14.07;;;12.67;;
8584;SDS011;7180;52.742;11.420;2024-01-15T00:10:52;14.37;;;12.87;;
8584;SDS011;7180;52.742;11.420;2024-01-15T00:13:17;14.40;;;12.97;;
8584;SDS011;7180;52.742;11.420;2024-01-15T00:15:42;14.30;;;12.90;;
8584;SDS011;7180;52.742;11.420;2024-01-15T00:18:08;14.07;;;12.70;;
8584;SDS011;7180;52.742;11.420;2024-01-15T00:20:33;14.80;;;13.20;;
8584;SDS011;7180;52.742;11.420;2024-01-15T00:22:59;14.23;;;12.73;;
8584;SDS011;7180;52.742;11.420;2024-01-15T00:25:24;13.87;;;12.57;;
8584;SDS011;7180;52.742;11.420;2024-01-15T00:27:49;14.07;;;12.73;;
8584;SDS011;7180;52.742;11.420;2024-01-15T00:30:14;13.97;;;12.67;;
8584;SDS011;7180;52.742;11.420;2024-01-15T00:32:40;13.07;;;11.87;;
8584;SDS011;7180;52.742;11.420;2024-01-15T00:35:05;13.77;;;12.37;;
8584;SDS011;7180;52.742;11.420;2024-01-15T00:37:30;12.93;;;11.67;;
8584;SDS011;7180;52.742;11.420;2024-01-15T00:39:56;12.73;;;11.43;;
8584;SDS011;7180;52.742;11.420;2024-01-15T00:42:21;13.37;;;11.87;;
8584;SDS011;7180;52.742;11.420;2024-01-15T00:44:46;12.85;;;11.57;;
8584;SDS011;7180;52.742;11.420;2024-01-15T00:47:12;12.83;;;11.53;;
8584;SDS011;7180;52.742;11.420;2024-01-15T00:49:37;12.90;;;11.60;;
8584;SDS011;7180;52.742;11.420;2024-01-15T00:52:03;13.17;;;11.27;;
8584;SDS011;7180;52.742;11.420;2024-01-15T00:54:28;12.37;;;11.17;;
8584;SDS011;7180;52.742;11.420;2024-01-15T00:56:53;11.90;;;10.80;;
8584;SDS011;7180;52.742;11.420;2024-01-15T00:59:19;11.77;;;10.67;;
8584;SDS011;7180;52.742;11.420;2024-01-15T01:01:45;12.00;;;10.80;;
8584;SDS011;7180;52.742;11.420;2024-01-15T01:04:11;12.20;;;10.90;;
8584;SDS011;7180;52.742;11.420;2024-01-15T01:06:36;13.23;;;11.63;;
8584;SDS011;7180;52.742;11.420;2024-01-15T01:09:02;11.97;;;10.87;;
8584;SDS011;7180;52.742;11.420;2024-01-15T01:11:27;11.77;;;10.50;;
8584;SDS011;7180;52.742;11.420;2024-01-15T01:13:52;12.27;;;10.53;;
8584;SDS011;7180;52.742;11.420;2024-01-15T01:16:17;11.73;;;10.63;;
8584;SDS011;7180;52.742;11.420;2024-01-15T01:18:43;11.90;;;10.63;;
8584;SDS011;7180;52.742;11.420;2024-01-15T01:21:08;12.03;;;10.63;;
8584;SDS011;7180;52.742;11.420;2024-01-15T01:23:33;11.83;;;10.73;;
8584;SDS011;7180;52.742;11.420;2024-01-15T01:25:58;11.37;;;10.27;;
8584;SDS011;7180;52.742;11.420;2024-01-15T01:28:24;11.07;;;9.90;;
8584;SDS011;7180;52.742;11.420;2024-01-15T01:30:49;11.97;;;10.70;;
8584;SDS011;7180;52.742;11.420;2024-01-15T01:33:14;11.00;;;9.93;;
8584;SDS011;7180;52.742;11.420;2024-01-15T01:35:39;11.77;;;10.57;;
8584;SDS011;7180;52.742;11.420;2024-01-15T01:38:05;12.20;;;10.53;;
8584;SDS011;7180;52.742;11.420;2024-01-15T01:40:30;11.80;;;10.73;;
8584;SDS011;7180;52.742;11.420;2024-01-15T01:42:55;11.07;;;10.03;;
8584;SDS011;7180;52.742;11.420;2024-01-15T01:45:21;10.10;;;9.20;;
8584;SDS011;7180;52.742;11.420;2024-01-15T01:47:46;11.60;;;10.00;;
8584;SDS011;7180;52.742;11.420;2024-01-15T01:50:11;11.17;;;9.93;;
8584;SDS011;7180;52.742;11.420;2024-01-15T01:52:38;11.67;;;10.43;;
8584;SDS011;7180;52.742;11.420;2024-01-15T01:55:05;11.57;;;10.37;;
8584;SDS011;7180;52.742;11.420;2024-01-15T01:57:32;11.37;;;10.27;;
8584;SDS011;7180;52.742;11.420;2024-01-15T01:59:59;12.23;;;10.23;;
8584;SDS011;7180;52.742;11.420;2024-01-15T02:02:25;12.37;;;10.37;;
8584;SDS011;7180;52.742;11.420;2024-01-15T02:04:51;11.03;;;9.90;;
8584;SDS011;7180;52.742;11.420;2024-01-15T02:07:16;10.93;;;9.87;;
8584;SDS011;7180;52.742;11.420;2024-01-15T02:09:42;10.73;;;9.60;;
8584;SDS011;7180;52.742;11.420;2024-01-15T02:12:09;10.90;;;9.13;;
8584;SDS011;7180;52.742;11.420;2024-01-15T02:14:34;11.60;;;10.40;;
8584;SDS011;7180;52.742;11.420;2024-01-15T02:17:00;12.47;;;9.40;;
8584;SDS011;7180;52.742;11.420;2024-01-15T02:19:25;10.20;;;9.20;;
8584;SDS011;7180;52.742;11.420;2024-01-15T02:21:50;10.23;;;9.23;;
8584;SDS011;7180;52.742;11.420;2024-01-15T02:24:16;10.80;;;9.53;;
8584;SDS011;7180;52.742;11.420;2024-01-15T02:26:41;10.07;;;9.00;;
8584;SDS011;7180;52.742;11.420;2024-01-15T02:29:07;9.80;;;8.80;;
8584;SDS011;7180;52.742;11.420;2024-01-15T02:31:34;9.87;;;8.93;;
8584;SDS011;7180;52.742;11.420;2024-01-15T02:34:00;8.87;;;8.03;;
8584;SDS011;7180;52.742;11.420;2024-01-15T02:36:25;9.80;;;8.67;;
8584;SDS011;7180;52.742;11.420;2024-01-15T02:38:51;11.90;;;9.47;;
8584;SDS011;7180;52.742;11.420;2024-01-15T02:41:16;9.13;;;8.37;;
8584;SDS011;7180;52.742;11.420;2024-01-15T02:43:41;9.10;;;8.17;;
8584;SDS011;7180;52.742;11.420;2024-01-15T02:46:07;10.40;;;8.47;;
8584;SDS011;7180;52.742;11.420;2024-01-15T02:48:32;9.43;;;8.30;;
8584;SDS011;7180;52.742;11.420;2024-01-15T02:50:59;10.13;;;8.47;;
8584;SDS011;7180;52.742;11.420;2024-01-15T02:53:25;9.97;;;8.10;;
8584;SDS011;7180;52.742;11.420;2024-01-15T02:55:50;8.63;;;7.90;;
8584;SDS011;7180;52.742;11.420;2024-01-15T02:58:15;9.40;;;7.93;;
8584;SDS011;7180;52.742;11.420;2024-01-15T03:00:40;10.07;;;7.80;;
8584;SDS011;7180;52.742;11.420;2024-01-15T03:03:06;8.40;;;7.70;;
8584;SDS011;7180;52.742;11.420;2024-01-15T03:05:31;9.73;;;7.73;;
8584;SDS011;7180;52.742;11.420;2024-01-15T03:07:56;8.87;;;7.90;;
8584;SDS011;7180;52.742;11.420;2024-01-15T03:10:22;8.43;;;7.73;;
8584;SDS011;7180;52.742;11.420;2024-01-15T03:12:47;8.80;;;7.90;;
8584;SDS011;7180;52.742;11.420;2024-01-15T03:15:12;8.10;;;7.50;;
8584;SDS011;7180;52.742;11.420;2024-01-15T03:17:37;8.07;;;7.37;;
8584;SDS011;7180;52.742;11.420;2024-01-15T03:20:03;8.63;;;7.60;;
8584;SDS011;7180;52.742;11.420;2024-01-15T03:22:28;8.57;;;7.60;;
8584;SDS011;7180;52.742;11.420;2024-01-15T03:24:54;8.53;;;7.80;;
8584;SDS011;7180;52.742;11.420;2024-01-15T03:27:19;8.17;;;7.47;;
8584;SDS011;7180;52.742;11.420;2024-01-15T03:29:44;8.17;;;7.47;;
8584;SDS011;7180;52.742;11.420;2024-01-15T03:32:10;8.17;;;7.40;;
8584;SDS011;7180;52.742;11.420;2024-01-15T03:34:35;7.67;;;6.93;;
8584;SDS011;7180;52.742;11.420;2024-01-15T03:37:00;7.87;;;7.17;;
8584;SDS011;7180;52.742;11.420;2024-01-15T03:39:25;8.57;;;7.67;;
8584;SDS011;7180;52.742;11.420;2024-01-15T03:41:51;8.73;;;7.83;;
8584;SDS011;7180;52.742;11.420;2024-01-15T03:44:16;8.93;;;7.63;;
8584;SDS011;7180;52.742;11.420;2024-01-15T03:46:41;8.47;;;7.63;;
8584;SDS011;7180;52.742;11.420;2024-01-15T03:49:06;8.10;;;7.50;;
8584;SDS011;7180;52.742;11.420;2024-01-15T03:51:32;8.70;;;7.90;;
8584;SDS011;7180;52.742;11.420;2024-01-15T03:53:57;8.23;;;7.43;;
8584;SDS011;7180;52.742;11.420;2024-01-15T03:56:22;8.17;;;7.50;;
8584;SDS011;7180;52.742;11.420;2024-01-15T03:58:48;8.37;;;7.40;;
8584;SDS011;7180;52.742;11.420;2024-01-15T04:01:13;7.77;;;7.20;;
8584;SDS011;7180;52.742;11.420;2024-01-15T04:03:38;8.33;;;7.73;;
8584;SDS011;7180;52.742;11.420;2024-01-15T04:06:04;7.83;;;7.20;;
8584;SDS011;7180;52.742;11.420;2024-01-15T04:08:29;7.60;;;7.10;;
8584;SDS011;7180;52.742;11.420;2024-01-15T04:10:55;8.70;;;7.20;;
8584;SDS011;7180;52.742;11.420;2024-01-15T04:13:20;9.17;;;8.33;;
8584;SDS011;7180;52.742;11.420;2024-01-15T04:15:46;8.70;;;8.07;;
8584;SDS011;7180;52.742;11.420;2024-01-15T04:18:11;9.70;;;8.63;;
8584;SDS011;7180;52.742;11.420;2024-01-15T04:20:36;9.30;;;8.40;;
8584;SDS011;7180;52.742;11.420;2024-01-15T04:23:02;9.60;;;8.73;;
8584;SDS011;7180;52.742;11.420;2024-01-15T04:25:27;8.73;;;8.10;;
8584;SDS011;7180;52.742;11.420;2024-01-15T04:27:52;9.00;;;8.30;;
8584;SDS011;7180;52.742;11.420;2024-01-15T04:30:17;8.90;;;8.10;;
8584;SDS011;7180;52.742;11.420;2024-01-15T04:32:43;8.93;;;8.23;;
8584;SDS011;7180;52.742;11.420;2024-01-15T04:35:08;8.90;;;8.10;;
8584;SDS011;7180;52.742;11.420;2024-01-15T04:37:33;8.40;;;7.80;;
8584;SDS011;7180;52.742;11.420;2024-01-15T04:39:59;9.23;;;8.43;;
8584;SDS011;7180;52.742;11.420;2024-01-15T04:42:24;8.27;;;7.53;;
8584;SDS011;7180;52.742;11.420;2024-01-15T04:44:49;8.20;;;7.37;;
8584;SDS011;7180;52.742;11.420;2024-01-15T04:47:14;8.83;;;8.13;;
8584;SDS011;7180;52.742;11.420;2024-01-15T04:49:40;9.30;;;7.50;;
8584;SDS011;7180;52.742;11.420;2024-01-15T04:52:05;8.20;;;7.50;;
8584;SDS011;7180;52.742;11.420;2024-01-15T04:54:30;8.10;;;7.30;;
8584;SDS011;7180;52.742;11.420;2024-01-15T04:56:55;8.73;;;7.53;;
8584;SDS011;7180;52.742;11.420;2024-01-15T04:59:21;8.20;;;7.50;;
8584;SDS011;7180;52.742;11.420;2024-01-15T05:01:46;8.40;;;7.60;;
8584;SDS011;7180;52.742;11.420;2024-01-15T05:04:12;8.37;;;7.67;;
8584;SDS011;7180;52.742;11.420;2024-01-15T05:06:37;8.53;;;7.70;;
8584;SDS011;7180;52.742;11.420;2024-01-15T05:09:03;7.83;;;7.23;;
8584;SDS011;7180;52.742;11.420;2024-01-15T05:11:29;7.57;;;7.07;;
8584;SDS011;7180;52.742;11.420;2024-01-15T05:13:54;8.27;;;7.60;;
8584;SDS011;7180;52.742;11.420;2024-01-15T05:16:19;7.93;;;7.27;;
8584;SDS011;7180;52.742;11.420;2024-01-15T05:18:45;7.67;;;7.00;;
8584;SDS011;7180;52.742;11.420;2024-01-15T05:21:10;8.10;;;7.50;;
8584;SDS011;7180;52.742;11.420;2024-01-15T05:23:35;13.37;;;8.00;;
8584;SDS011;7180;52.742;11.420;2024-01-15T05:26:01;7.90;;;7.30;;
8584;SDS011;7180;52.742;11.420;2024-01-15T05:28:26;7.60;;;7.10;;
8584;SDS011;7180;52.742;11.420;2024-01-15T05:30:51;8.23;;;7.63;;
8584;SDS011;7180;52.742;11.420;2024-01-15T05:33:17;8.10;;;7.50;;
8584;SDS011;7180;52.742;11.420;2024-01-15T05:35:43;8.50;;;7.70;;
8584;SDS011;7180;52.742;11.420;2024-01-15T05:38:08;10.37;;;8.03;;
8584;SDS011;7180;52.742;11.420;2024-01-15T05:40:33;8.20;;;7.57;;
8584;SDS011;7180;52.742;11.420;2024-01-15T05:42:58;8.40;;;7.63;;
8584;SDS011;7180;52.742;11.420;2024-01-15T05:45:25;8.87;;;7.63;;
8584;SDS011;7180;52.742;11.420;2024-01-15T05:47:51;8.03;;;7.40;;
8584;SDS011;7180;52.742;11.420;2024-01-15T05:50:16;7.87;;;7.33;;
8584;SDS011;7180;52.742;11.420;2024-01-15T05:52:42;8.70;;;7.87;;
8584;SDS011;7180;52.742;11.420;2024-01-15T05:55:07;10.67;;;8.00;;
8584;SDS011;7180;52.742;11.420;2024-01-15T05:57:32;9.20;;;8.17;;
8584;SDS011;7180;52.742;11.420;2024-01-15T05:59:58;8.50;;;7.80;;
8584;SDS011;7180;52.742;11.420;2024-01-15T06:02:23;8.37;;;7.60;;
8584;SDS011;7180;52.742;11.420;2024-01-15T06:04:48;8.70;;;7.90;;
8584;SDS011;7180;52.742;11.420;2024-01-15T06:07:13;8.30;;;7.63;;
8584;SDS011;7180;52.742;11.420;2024-01-15T06:09:39;9.20;;;8.10;;
8584;SDS011;7180;52.742;11.420;2024-01-15T06:12:04;10.27;;;8.27;;
8584;SDS011;7180;52.742;11.420;2024-01-15T06:14:32;9.40;;;8.50;;
8584;SDS011;7180;52.742;11.420;2024-01-15T06:16:57;9.90;;;8.50;;
8584;SDS011;7180;52.742;11.420;2024-01-15T06:19:22;8.83;;;8.10;;
8584;SDS011;7180;52.742;11.420;2024-01-15T06:21:47;8.60;;;7.90;;
8584;SDS011;7180;52.742;11.420;2024-01-15T06:24:13;8.60;;;7.90;;
8584;SDS011;7180;52.742;11.420;2024-01-15T06:26:40;9.30;;;8.20;;
8584;SDS011;7180;52.742;11.420;2024-01-15T06:29:05;8.70;;;8.10;;
8584;SDS011;7180;52.742;11.420;2024-01-15T06:31:30;8.83;;;7.60;;
8584;SDS011;7180;52.742;11.420;2024-01-15T06:33:55;8.83;;;8.13;;
8584;SDS011;7180;52.742;11.420;2024-01-15T06:36:21;8.60;;;7.83;;
8584;SDS011;7180;52.742;11.420;2024-01-15T06:38:46;8.23;;;7.57;;
8584;SDS011;7180;52.742;11.420;2024-01-15T06:41:12;8.70;;;7.90;;
8584;SDS011;7180;52.742;11.420;2024-01-15T06:43:37;8.63;;;7.93;;
8584;SDS011;7180;52.742;11.420;2024-01-15T06:46:02;8.30;;;7.80;;
8584;SDS011;7180;52.742;11.420;2024-01-15T06:48:27;8.77;;;8.00;;
8584;SDS011;7180;52.742;11.420;2024-01-15T06:50:53;8.53;;;7.83;;
8584;SDS011;7180;52.742;11.420;2024-01-15T06:53:18;8.63;;;7.90;;
8584;SDS011;7180;52.742;11.420;2024-01-15T06:55:44;8.23;;;7.73;;
8584;SDS011;7180;52.742;11.420;2024-01-15T06:58:09;8.20;;;7.60;;
8584;SDS011;7180;52.742;11.420;2024-01-15T07:00:34;8.37;;;7.77;;
8584;SDS011;7180;52.742;11.420;2024-01-15T07:02:59;8.80;;;8.10;;
8584;SDS011;7180;52.742;11.420;2024-01-15T07:05:25;8.30;;;7.80;;
8584;SDS011;7180;52.742;11.420;2024-01-15T07:07:50;9.10;;;8.30;;
8584;SDS011;7180;52.742;11.420;2024-01-15T07:10:15;8.60;;;8.00;;
8584;SDS011;7180;52.742;11.420;2024-01-15T07:12:44;8.33;;;7.63;;
8584;SDS011;7180;52.742;11.420;2024-01-15T07:15:09;8.23;;;7.63;;
8584;SDS011;7180;52.742;11.420;2024-01-15T07:17:35;8.87;;;8.27;;
8584;SDS011;7180;52.742;11.420;2024-01-15T07:20:01;9.73;;;8.87;;
8584;SDS011;7180;52.742;11.420;2024-01-15T07:22:26;8.77;;;7.97;;
8584;SDS011;7180;52.742;11.420;2024-01-15T07:24:52;10.07;;;9.10;;
8584;SDS011;7180;52.742;11.420;2024-01-15T07:27:17;8.80;;;8.03;;
8584;SDS011;7180;52.742;11.420;2024-01-15T07:29:43;8.83;;;8.10;;
8584;SDS011;7180;52.742;11.420;2024-01-15T07:32:08;9.53;;;8.60;;
8584;SDS011;7180;52.742;11.420;2024-01-15T07:34:34;8.80;;;8.20;;
8584;SDS011;7180;52.742;11.420;2024-01-15T07:36:59;9.63;;;8.83;;
8584;SDS011;7180;52.742;11.420;2024-01-15T07:39:25;9.47;;;8.57;;
8584;SDS011;7180;52.742;11.420;2024-01-15T07:41:50;9.80;;;9.10;;
8584;SDS011;7180;52.742;11.420;2024-01-15T07:44:16;9.40;;;8.50;;
8584;SDS011;7180;52.742;11.420;2024-01-15T07:46:45;8.90;;;8.10;;
8584;SDS011;7180;52.742;11.420;2024-01-15T07:49:11;8.90;;;8.27;;
8584;SDS011;7180;52.742;11.420;2024-01-15T07:51:37;9.53;;;8.67;;
8584;SDS011;7180;52.742;11.420;2024-01-15T07:54:02;8.70;;;8.10;;
8584;SDS011;7180;52.742;11.420;2024-01-15T07:56:28;8.83;;;8.20;;
8584;SDS011;7180;52.742;11.420;2024-01-15T07:58:53;8.60;;;8.00;;
8584;SDS011;7180;52.742;11.420;2024-01-15T08:01:18;9.00;;;8.30;;
8584;SDS011;7180;52.742;11.420;2024-01-15T08:03:43;8.63;;;7.80;;
8584;SDS011;7180;52.742;11.420;2024-01-15T08:06:09;8.33;;;7.83;;
8584;SDS011;7180;52.742;11.420;2024-01-15T08:08:34;8.30;;;7.80;;
8584;SDS011;7180;52.742;11.420;2024-01-15T08:11:00;9.17;;;8.50;;
8584;SDS011;7180;52.742;11.420;2024-01-15T08:13:26;8.93;;;8.23;;
8584;SDS011;7180;52.742;11.420;2024-01-15T08:15:51;8.43;;;7.90;;
8584;SDS011;7180;52.742;11.420;2024-01-15T08:18:17;9.00;;;8.40;;
8584;SDS011;7180;52.742;11.420;2024-01-15T08:20:42;9.37;;;8.67;;
8584;SDS011;7180;52.742;11.420;2024-01-15T08:23:07;9.70;;;9.00;;
8584;SDS011;7180;52.742;11.420;2024-01-15T08:25:33;8.80;;;8.30;;
8584;SDS011;7180;52.742;11.420;2024-01-15T08:27:58;9.97;;;9.27;;
8584;SDS011;7180;52.742;11.420;2024-01-15T08:30:23;8.77;;;8.17;;
8584;SDS011;7180;52.742;11.420;2024-01-15T08:32:55;8.60;;;8.00;;
8584;SDS011;7180;52.742;11.420;2024-01-15T08:35:20;9.03;;;8.43;;
8584;SDS011;7180;52.742;11.420;2024-01-15T08:37:50;9.07;;;8.50;;
8584;SDS011;7180;52.742;11.420;2024-01-15T08:40:15;9.30;;;8.70;;
8584;SDS011;7180;52.742;11.420;2024-01-15T08:42:41;9.00;;;8.50;;
8584;SDS011;7180;52.742;11.420;2024-01-15T08:45:07;8.90;;;8.30;;
8584;SDS011;7180;52.742;11.420;2024-01-15T08:47:33;8.90;;;8.30;;
8584;SDS011;7180;52.742;11.420;2024-01-15T08:49:59;10.77;;;9.93;;
8584;SDS011;7180;52.742;11.420;2024-01-15T08:52:25;11.17;;;9.97;;
8584;SDS011;7180;52.742;11.420;2024-01-15T08:54:50;9.27;;;8.57;;
8584;SDS011;7180;52.742;11.420;2024-01-15T08:57:15;10.00;;;9.30;;
8584;SDS011;7180;52.742;11.420;2024-01-15T08:59:41;10.77;;;9.87;;
8584;SDS011;7180;52.742;11.420;2024-01-15T09:02:06;9.23;;;8.63;;
8584;SDS011;7180;52.742;11.420;2024-01-15T09:04:32;9.07;;;8.47;;
8584;SDS011;7180;52.742;11.420;2024-01-15T09:06:58;8.40;;;7.80;;
8584;SDS011;7180;52.742;11.420;2024-01-15T09:09:23;8.10;;;7.70;;
8584;SDS011;7180;52.742;11.420;2024-01-15T09:11:49;7.93;;;7.53;;
8584;SDS011;7180;52.742;11.420;2024-01-15T09:14:14;8.03;;;7.70;;
8584;SDS011;7180;52.742;11.420;2024-01-15T09:16:40;8.10;;;7.70;;
8584;SDS011;7180;52.742;11.420;2024-01-15T09:19:05;7.87;;;7.40;;
8584;SDS011;7180;52.742;11.420;2024-01-15T09:21:30;8.20;;;7.80;;
8584;SDS011;7180;52.742;11.420;2024-01-15T09:23:56;8.00;;;7.60;;
8584;SDS011;7180;52.742;11.420;2024-01-15T09:26:21;7.70;;;7.30;;
8584;SDS011;7180;52.742;11.420;2024-01-15T09:28:46;7.73;;;7.37;;
8584;SDS011;7180;52.742;11.420;2024-01-15T09:31:14;7.33;;;7.00;;
8584;SDS011;7180;52.742;11.420;2024-01-15T09:33:42;9.47;;;8.87;;
8584;SDS011;7180;52.742;11.420;2024-01-15T09:36:07;7.63;;;7.23;;
8584;SDS011;7180;52.742;11.420;2024-01-15T09:38:33;8.80;;;8.13;;
8584;SDS011;7180;52.742;11.420;2024-01-15T09:40:58;10.83;;;9.93;;
8584;SDS011;7180;52.742;11.420;2024-01-15T09:43:24;12.30;;;11.20;;
8584;SDS011;7180;52.742;11.420;2024-01-15T09:45:49;9.37;;;8.67;;
8584;SDS011;7180;52.742;11.420;2024-01-15T09:48:15;15.00;;;13.30;;
8584;SDS011;7180;52.742;11.420;2024-01-15T09:50:41;20.07;;;16.57;;
8584;SDS011;7180;52.742;11.420;2024-01-15T09:53:06;15.20;;;13.00;;
8584;SDS011;7180;52.742;11.420;2024-01-15T09:55:32;15.00;;;13.50;;
8584;SDS011;7180;52.742;11.420;2024-01-15T09:57:57;27.50;;;20.53;;
8584;SDS011;7180;52.742;11.420;2024-01-15T10:00:25;12.50;;;11.30;;
8584;SDS011;7180;52.742;11.420;2024-01-15T10:02:51;14.37;;;11.67;;
8584;SDS011;7180;52.742;11.420;2024-01-15T10:05:16;11.43;;;10.53;;
8584;SDS011;7180;52.742;11.420;2024-01-15T10:07:42;10.70;;;9.73;;
8584;SDS011;7180;52.742;11.420;2024-01-15T10:10:09;10.60;;;9.70;;
8584;SDS011;7180;52.742;11.420;2024-01-15T10:12:35;9.80;;;9.10;;
8584;SDS011;7180;52.742;11.420;2024-01-15T10:15:01;9.03;;;8.33;;
8584;SDS011;7180;52.742;11.420;2024-01-15T10:17:26;8.67;;;8.07;;
8584;SDS011;7180;52.742;11.420;2024-01-15T10:19:56;8.37;;;7.87;;
8584;SDS011;7180;52.742;11.420;2024-01-15T10:22:21;11.27;;;10.37;;
8584;SDS011;7180;52.742;11.420;2024-01-15T10:24:46;13.03;;;11.30;;
8584;SDS011;7180;52.742;11.420;2024-01-15T10:27:12;15.17;;;12.40;;
8584;SDS011;7180;52.742;11.420;2024-01-15T10:29:37;10.87;;;9.93;;
8584;SDS011;7180;52.742;11.420;2024-01-15T10:32:03;10.40;;;9.47;;
8584;SDS011;7180;52.742;11.420;2024-01-15T10:34:31;11.10;;;10.20;;
8584;SDS011;7180;52.742;11.420;2024-01-15T10:36:56;10.70;;;9.80;;
8584;SDS011;7180;52.742;11.420;2024-01-15T10:39:22;8.87;;;8.37;;
8584;SDS011;7180;52.742;11.420;2024-01-15T10:41:48;9.23;;;8.60;;
8584;SDS011;7180;52.742;11.420;2024-01-15T10:44:14;10.23;;;9.33;;
8584;SDS011;7180;52.742;11.420;2024-01-15T10:46:39;12.27;;;11.03;;
8584;SDS011;7180;52.742;11.420;2024-01-15T10:49:05;8.43;;;7.83;;
8584;SDS011;7180;52.742;11.420;2024-01-15T10:51:31;8.27;;;7.80;;
8584;SDS011;7180;52.742;11.420;2024-01-15T10:53:57;7.37;;;6.97;;
8584;SDS011;7180;52.742;11.420;2024-01-15T10:56:24;9.93;;;9.13;;
8584;SDS011;7180;52.742;11.420;2024-01-15T10:58:52;12.43;;;11.33;;
8584;SDS011;7180;52.742;11.420;2024-01-15T11:01:19;9.67;;;8.93;;
8584;SDS011;7180;52.742;11.420;2024-01-15T11:03:45;10.47;;;9.57;;
8584;SDS011;7180;52.742;11.420;2024-01-15T11:06:17;10.17;;;9.33;;
8584;SDS011;7180;52.742;11.420;2024-01-15T11:08:48;9.67;;;8.87;;
8584;SDS011;7180;52.742;11.420;2024-01-15T11:11:15;11.77;;;10.67;;
8584;SDS011;7180;52.742;11.420;2024-01-15T11:13:41;12.57;;;11.27;;
8584;SDS011;7180;52.742;11.420;2024-01-15T11:16:10;10.70;;;9.60;;
8584;SDS011;7180;52.742;11.420;2024-01-15T11:18:37;10.03;;;9.13;;
8584;SDS011;7180;52.742;11.420;2024-01-15T11:23:42;10.60;;;9.80;;
8584;SDS011;7180;52.742;11.420;2024-01-15T11:26:30;8.53;;;7.97;;
8584;SDS011;7180;52.742;11.420;2024-01-15T11:29:03;8.37;;;7.77;;
8584;SDS011;7180;52.742;11.420;2024-01-15T11:34:08;10.23;;;9.40;;
8584;SDS011;7180;52.742;11.420;2024-01-15T11:41:56;10.40;;;9.50;;
8584;SDS011;7180;52.742;11.420;2024-01-15T11:44:26;8.93;;;8.23;;
8584;SDS011;7180;52.742;11.420;2024-01-15T11:47:13;11.63;;;10.57;;
8584;SDS011;7180;52.742;11.420;2024-01-15T11:52:16;9.17;;;8.50;;
8584;SDS011;7180;52.742;11.420;2024-01-15T11:55:26;8.80;;;8.20;;
8584;SDS011;7180;52.742;11.420;2024-01-15T11:57:51;9.60;;;8.87;;
8584;SDS011;7180;52.742;11.420;2024-01-15T12:00:17;9.60;;;8.70;;
8584;SDS011;7180;52.742;11.420;2024-01-15T12:02:43;9.13;;;8.50;;
8584;SDS011;7180;52.742;11.420;2024-01-15T12:05:11;11.17;;;10.23;;
8584;SDS011;7180;52.742;11.420;2024-01-15T12:07:40;9.00;;;8.30;;
8584;SDS011;7180;52.742;11.420;2024-01-15T12:10:10;8.30;;;7.60;;
8584;SDS011;7180;52.742;11.420;2024-01-15T12:15:27;8.50;;;7.80;;
8584;SDS011;7180;52.742;11.420;2024-01-15T12:17:57;8.23;;;7.57;;
8584;SDS011;7180;52.742;11.420;2024-01-15T12:20:27;8.93;;;8.27;;
8584;SDS011;7180;52.742;11.420;2024-01-15T12:22:54;9.00;;;7.63;;
8584;SDS011;7180;52.742;11.420;2024-01-15T12:25:21;8.70;;;7.90;;
8584;SDS011;7180;52.742;11.420;2024-01-15T12:27:48;8.50;;;7.80;;
8584;SDS011;7180;52.742;11.420;2024-01-15T12:30:14;11.47;;;10.30;;
8584;SDS011;7180;52.742;11.420;2024-01-15T12:32:40;9.67;;;8.87;;
8584;SDS011;7180;52.742;11.420;2024-01-15T12:35:12;9.83;;;8.90;;
8584;SDS011;7180;52.742;11.420;2024-01-15T12:37:41;9.60;;;8.70;;
8584;SDS011;7180;52.742;11.420;2024-01-15T12:40:08;8.27;;;7.50;;
8584;SDS011;7180;52.742;11.420;2024-01-15T12:42:36;8.03;;;7.23;;
8584;SDS011;7180;52.742;11.420;2024-01-15T12:45:05;7.10;;;6.50;;
8584;SDS011;7180;52.742;11.420;2024-01-15T12:47:32;7.40;;;6.63;;
8584;SDS011;7180;52.742;11.420;2024-01-15T12:49:57;7.70;;;7.03;;
8584;SDS011;7180;52.742;11.420;2024-01-15T12:52:26;7.33;;;6.67;;
8584;SDS011;7180;52.742;11.420;2024-01-15T12:54:52;6.60;;;6.00;;
8584;SDS011;7180;52.742;11.420;2024-01-15T12:57:17;7.20;;;6.67;;
8584;SDS011;7180;52.742;11.420;2024-01-15T12:59:45;7.77;;;7.17;;
8584;SDS011;7180;52.742;11.420;2024-01-15T13:02:14;7.27;;;6.73;;
8584;SDS011;7180;52.742;11.420;2024-01-15T13:04:43;7.47;;;6.70;;
8584;SDS011;7180;52.742;11.420;2024-01-15T13:07:08;8.27;;;7.50;;
8584;SDS011;7180;52.742;11.420;2024-01-15T13:09:34;7.63;;;7.13;;
8584;SDS011;7180;52.742;11.420;2024-01-15T13:12:00;8.30;;;7.50;;
8584;SDS011;7180;52.742;11.420;2024-01-15T13:14:26;8.80;;;8.00;;
8584;SDS011;7180;52.742;11.420;2024-01-15T13:16:52;7.70;;;7.20;;
8584;SDS011;7180;52.742;11.420;2024-01-15T13:19:18;7.23;;;6.60;;
8584;SDS011;7180;52.742;11.420;2024-01-15T13:21:44;7.37;;;6.67;;
8584;SDS011;7180;52.742;11.420;2024-01-15T13:24:09;7.03;;;6.63;;
8584;SDS011;7180;52.742;11.420;2024-01-15T13:26:36;6.80;;;6.30;;
8584;SDS011;7180;52.742;11.420;2024-01-15T13:29:02;7.63;;;7.13;;
8584;SDS011;7180;52.742;11.420;2024-01-15T13:31:31;7.50;;;6.90;;
8584;SDS011;7180;52.742;11.420;2024-01-15T13:33:57;7.80;;;7.27;;
8584;SDS011;7180;52.742;11.420;2024-01-15T13:36:23;7.40;;;6.80;;
8584;SDS011;7180;52.742;11.420;2024-01-15T13:38:49;7.93;;;7.20;;
8584;SDS011;7180;52.742;11.420;2024-01-15T13:41:15;9.93;;;9.10;;
8584;SDS011;7180;52.742;11.420;2024-01-15T13:43:41;10.33;;;9.33;;
8584;SDS011;7180;52.742;11.420;2024-01-15T13:46:06;9.20;;;8.40;;
8584;SDS011;7180;52.742;11.420;2024-01-15T13:48:31;7.33;;;6.83;;
8584;SDS011;7180;52.742;11.420;2024-01-15T13:50:57;7.27;;;6.73;;
8584;SDS011;7180;52.742;11.420;2024-01-15T13:53:23;7.93;;;7.13;;
8584;SDS011;7180;52.742;11.420;2024-01-15T13:55:48;7.50;;;7.00;;
8584;SDS011;7180;52.742;11.420;2024-01-15T13:58:13;7.50;;;6.90;;
8584;SDS011;7180;52.742;11.420;2024-01-15T14:00:38;7.67;;;7.07;;
8584;SDS011;7180;52.742;11.420;2024-01-15T14:03:04;8.20;;;7.50;;
8584;SDS011;7180;52.742;11.420;2024-01-15T14:05:30;7.73;;;6.97;;
8584;SDS011;7180;52.742;11.420;2024-01-15T14:07:55;8.20;;;7.43;;
8584;SDS011;7180;52.742;11.420;2024-01-15T14:10:20;7.87;;;7.27;;
8584;SDS011;7180;52.742;11.420;2024-01-15T14:12:46;8.27;;;7.50;;
8584;SDS011;7180;52.742;11.420;2024-01-15T14:15:11;8.30;;;7.60;;
8584;SDS011;7180;52.742;11.420;2024-01-15T14:17:37;8.00;;;7.30;;
8584;SDS011;7180;52.742;11.420;2024-01-15T14:20:02;7.20;;;6.70;;
8584;SDS011;7180;52.742;11.420;2024-01-15T14:22:30;7.27;;;6.70;;
8584;SDS011;7180;52.742;11.420;2024-01-15T14:24:55;8.07;;;7.47;;
8584;SDS011;7180;52.742;11.420;2024-01-15T14:27:20;7.37;;;6.40;;
8584;SDS011;7180;52.742;11.420;2024-01-15T14:29:46;7.83;;;7.23;;
8584;SDS011;7180;52.742;11.420;2024-01-15T14:32:11;8.23;;;7.63;;
8584;SDS011;7180;52.742;11.420;2024-01-15T14:34:37;8.50;;;7.73;;
8584;SDS011;7180;52.742;11.420;2024-01-15T14:37:02;9.13;;;8.23;;
8584;SDS011;7180;52.742;11.420;2024-01-15T14:39:27;7.77;;;6.87;;
8584;SDS011;7180;52.742;11.420;2024-01-15T14:41:53;7.30;;;6.70;;
8584;SDS011;7180;52.742;11.420;2024-01-15T14:44:18;7.83;;;7.23;;
8584;SDS011;7180;52.742;11.420;2024-01-15T14:46:43;7.73;;;7.17;;
8584;SDS011;7180;52.742;11.420;2024-01-15T14:49:09;7.53;;;6.93;;
8584;SDS011;7180;52.742;11.420;2024-01-15T14:51:34;6.83;;;6.33;;
8584;SDS011;7180;52.742;11.420;2024-01-15T14:53:59;7.17;;;6.70;;
8584;SDS011;7180;52.742;11.420;2024-01-15T14:56:25;7.80;;;7.20;;
8584;SDS011;7180;52.742;11.420;2024-01-15T14:58:50;6.83;;;6.33;;
8584;SDS011;7180;52.742;11.420;2024-01-15T15:01:15;12.70;;;11.37;;
8584;SDS011;7180;52.742;11.420;2024-01-15T15:03:41;10.27;;;9.27;;